Terminal Aerodrome Forecast
Issued by NWS Cleveland, OH

Home | Current Version | Previous Version | Text Only | Print | Product List | Glossary On
Versions: 1 2 3 4 5 6 7 8 9 10 11 12 13 14 15 16 17 18 19 20 21 22 23
000
FTUS41 KCLE 182300
TAFCLE
TAF
KCLE 182330Z 1900/2006 02008KT P6SM FEW060 SCT100
     FM190600 03008KT P6SM FEW025 SCT035
      TEMPO 1907/1911 SCT015 OVC025
     FM191400 04012G20KT P6SM FEW100 SCT250=

USA.gov is the U.S. government's official web portal to all federal, state and local government web resources and services.